createdAt,value
2023-03-16T00:00:51.039Z,32.33
2023-03-16T00:01:53.545Z,31.10
2023-03-16T00:02:56.007Z,33.50
2023-03-16T00:04:02.390Z,32.42
2023-03-16T00:05:11.716Z,35.13
2023-03-16T00:06:16.394Z,33.63
2023-03-16T00:07:22.784Z,34.50
2023-03-16T00:08:30.324Z,31.98
2023-03-16T00:09:33.767Z,34.80
2023-03-16T00:10:36.830Z,33.25
2023-03-16T00:11:40.014Z,35.70
2023-03-16T00:12:44.140Z,29.95
2023-03-16T00:13:49.573Z,33.20
2023-03-16T00:14:55.839Z,33.90
2023-03-16T00:16:05.430Z,33.38
2023-03-16T00:17:19.762Z,32.75
2023-03-16T00:18:28.695Z,34.35
2023-03-16T00:21:44.654Z,35.10
2023-03-16T00:22:47.814Z,34.33
2023-03-16T00:23:49.921Z,33.83
2023-03-16T00:24:53.972Z,31.42
2023-03-16T00:25:59.883Z,32.63
2023-03-16T00:27:04.176Z,35.97
2023-03-16T00:28:09.685Z,34.63
2023-03-16T00:29:12.614Z,35.88
2023-03-16T00:30:19.253Z,32.75
2023-03-16T00:31:25.278Z,33.80
2023-03-16T00:32:37.742Z,33.80
2023-03-16T00:33:43.102Z,33.58
2023-03-16T00:34:47.174Z,32.03
2023-03-16T00:35:51.453Z,37.13
2023-03-16T00:36:55.363Z,35.35
2023-03-16T00:37:57.994Z,33.65
2023-03-16T00:39:01.120Z,39.05
2023-03-16T00:40:08.984Z,35.78
2023-03-16T00:41:19.193Z,35.42
2023-03-16T00:42:33.255Z,35.75
2023-03-16T00:43:45.619Z,35.30
2023-03-16T00:44:48.808Z,33.95
2023-03-16T00:46:00.940Z,32.05
2023-03-16T00:47:14.760Z,35.03
2023-03-16T00:48:24.596Z,32.58
2023-03-16T00:49:27.242Z,32.65
2023-03-16T00:50:30.095Z,35.55
2023-03-16T00:51:34.126Z,37.33
2023-03-16T00:52:40.023Z,32.92
2023-03-16T00:53:49.028Z,33.58
2023-03-16T00:54:53.481Z,33.10
2023-03-16T00:55:57.705Z,34.58
2023-03-16T00:57:02.795Z,34.85
2023-03-16T00:58:17.983Z,32.65
2023-03-16T00:59:22.433Z,30.40
2023-03-16T01:00:28.679Z,32.38
2023-03-16T01:01:34.419Z,32.72
2023-03-16T01:02:42.204Z,31.33
2023-03-16T01:03:45.160Z,33.70
2023-03-16T01:04:54.542Z,39.08
2023-03-16T01:06:00.385Z,39.97
2023-03-16T01:07:05.002Z,33.83
2023-03-16T01:08:07.417Z,35.38
2023-03-16T01:09:15.547Z,32.22
2023-03-16T01:10:22.769Z,32.38
2023-03-16T01:11:29.260Z,34.92
2023-03-16T01:12:35.544Z,32.58
2023-03-16T01:13:39.379Z,34.40
2023-03-16T01:16:08.331Z,34.17
2023-03-16T01:17:14.032Z,28.88
2023-03-16T01:18:25.527Z,33.45
2023-03-16T01:19:31.303Z,33.83
2023-03-16T01:20:35.117Z,32.55
2023-03-16T01:21:45.467Z,31.70
2023-03-16T01:22:49.439Z,29.83
2023-03-16T01:23:54.976Z,32.65
2023-03-16T01:25:00.674Z,34.72
2023-03-16T01:26:12.737Z,29.83
2023-03-16T01:27:16.868Z,32.03
2023-03-16T01:28:22.199Z,29.27
2023-03-16T01:29:25.520Z,32.28
2023-03-16T01:30:30.838Z,32.00
2023-03-16T01:31:34.914Z,31.52
2023-03-16T01:32:38.400Z,29.42
2023-03-16T01:33:44.432Z,35.15
2023-03-16T01:34:50.827Z,32.90
2023-03-16T01:35:56.579Z,31.77
2023-03-16T01:37:05.846Z,29.20
2023-03-16T01:38:23.132Z,31.02
2023-03-16T01:39:25.911Z,28.75
2023-03-16T01:40:30.740Z,33.88
2023-03-16T01:41:33.045Z,30.20
2023-03-16T01:42:45.917Z,28.63
2023-03-16T01:43:49.392Z,32.25
2023-03-16T01:44:55.524Z,28.48
2023-03-16T01:46:19.784Z,29.70
2023-03-16T01:47:24.118Z,29.05
2023-03-16T01:48:28.908Z,33.30
2023-03-16T01:49:39.155Z,34.72
2023-03-16T01:50:46.338Z,30.27
2023-03-16T01:51:56.445Z,31.23
2023-03-16T01:53:01.857Z,29.75
2023-03-16T01:54:15.070Z,32.22
2023-03-16T01:55:18.552Z,31.27
2023-03-16T01:56:27.483Z,27.40
2023-03-16T01:57:37.160Z,28.52
2023-03-16T01:58:42.748Z,28.30
2023-03-16T01:59:49.374Z,34.45
2023-03-16T02:00:52.246Z,29.80
2023-03-16T02:01:59.443Z,27.73
2023-03-16T02:03:11.897Z,28.77
2023-03-16T02:04:34.339Z,30.17
2023-03-16T02:05:56.736Z,29.85
2023-03-16T02:07:01.444Z,26.58
2023-03-16T02:08:07.221Z,30.75
2023-03-16T02:09:12.501Z,31.17
2023-03-16T02:10:23.853Z,30.13
2023-03-16T02:11:30.852Z,27.92
2023-03-16T02:12:51.531Z,30.30
2023-03-16T02:14:16.208Z,26.52
2023-03-16T02:15:27.645Z,33.53
2023-03-16T02:16:30.261Z,28.42
2023-03-16T02:17:36.196Z,26.60
2023-03-16T02:18:44.555Z,25.67
2023-03-16T02:20:38.532Z,28.83
2023-03-16T02:22:07.619Z,27.13
2023-03-16T02:23:19.785Z,30.60
2023-03-16T02:24:25.549Z,27.58
2023-03-16T02:25:37.368Z,26.63
2023-03-16T02:26:58.538Z,29.27
2023-03-16T02:28:21.472Z,27.00
2023-03-16T02:29:52.031Z,27.55
2023-03-16T02:30:58.996Z,30.55
2023-03-16T02:32:03.182Z,28.23
2023-03-16T02:33:07.908Z,26.20
2023-03-16T02:34:10.813Z,24.73
2023-03-16T02:35:13.995Z,28.80
2023-03-16T02:36:19.936Z,26.33
2023-03-16T02:37:23.182Z,26.15
2023-03-16T02:38:27.520Z,27.05
2023-03-16T02:39:31.740Z,26.67
2023-03-16T02:40:36.771Z,25.80
2023-03-16T02:41:43.171Z,25.73
2023-03-16T02:43:05.040Z,27.67
2023-03-16T02:44:34.461Z,27.13
2023-03-16T02:45:49.924Z,24.70
2023-03-16T02:47:03.043Z,36.72
2023-03-16T02:48:14.831Z,28.67
2023-03-16T02:50:30.421Z,26.20
2023-03-16T02:51:33.461Z,26.40
2023-03-16T02:52:40.401Z,28.27
2023-03-16T02:53:52.910Z,28.17
2023-03-16T02:54:59.231Z,25.50
2023-03-16T02:56:05.324Z,26.27
2023-03-16T02:57:22.214Z,26.75
2023-03-16T02:58:30.532Z,24.00
2023-03-16T02:59:34.316Z,24.35
2023-03-16T03:00:41.021Z,27.63
2023-03-16T03:01:43.348Z,22.88
2023-03-16T03:02:49.648Z,24.20
2023-03-16T03:03:56.238Z,23.42
2023-03-16T03:05:02.159Z,24.40
2023-03-16T03:06:08.260Z,22.92
2023-03-16T03:07:16.070Z,25.75
2023-03-16T03:08:39.781Z,24.85
2023-03-16T03:09:44.033Z,21.70
2023-03-16T03:10:51.512Z,25.20
2023-03-16T03:11:56.398Z,25.30
2023-03-16T03:13:00.689Z,24.33
2023-03-16T03:14:06.041Z,27.33
2023-03-16T03:15:10.366Z,26.80
2023-03-16T03:16:27.460Z,24.77
2023-03-16T03:17:34.298Z,26.05
2023-03-16T03:18:38.354Z,24.90
2023-03-16T03:19:40.804Z,23.77
2023-03-16T03:20:44.585Z,25.52
2023-03-16T03:21:48.140Z,24.58
2023-03-16T03:22:53.827Z,23.88
2023-03-16T03:24:00.609Z,25.10
2023-03-16T03:26:42.584Z,24.52
2023-03-16T03:27:57.325Z,22.27
2023-03-16T03:29:01.317Z,25.52
2023-03-16T03:30:13.187Z,23.77
2023-03-16T03:31:19.409Z,22.58
2023-03-16T03:32:26.412Z,25.83
2023-03-16T03:33:33.892Z,26.23
2023-03-16T03:34:47.557Z,25.10
2023-03-16T03:35:58.669Z,24.38
2023-03-16T03:37:07.995Z,25.13
2023-03-16T03:38:14.884Z,23.83
2023-03-16T03:39:21.814Z,22.85
2023-03-16T03:40:26.315Z,23.30
2023-03-16T03:41:36.234Z,24.08
2023-03-16T03:42:43.749Z,24.30
2023-03-16T03:43:48.624Z,27.60
2023-03-16T03:44:54.143Z,23.05
2023-03-16T03:46:01.254Z,25.52
2023-03-16T03:47:10.728Z,24.85
2023-03-16T03:48:13.804Z,23.75
2023-03-16T03:49:18.181Z,26.75
2023-03-16T03:50:21.506Z,21.40
2023-03-16T03:51:34.799Z,24.08
2023-03-16T03:52:48.226Z,20.95
2023-03-16T03:53:52.423Z,22.42
2023-03-16T03:55:14.007Z,24.13
2023-03-16T03:56:22.879Z,21.65
2023-03-16T03:57:25.209Z,28.70
2023-03-16T03:58:27.360Z,27.65
2023-03-16T03:59:29.859Z,22.90
2023-03-16T04:00:33.823Z,25.95
2023-03-16T04:01:40.981Z,22.05
2023-03-16T04:02:45.527Z,27.23
2023-03-16T04:04:09.042Z,24.95
2023-03-16T04:05:16.577Z,23.05
2023-03-16T04:06:24.173Z,25.70
2023-03-16T04:07:33.590Z,29.67
2023-03-16T04:08:40.881Z,20.80
2023-03-16T04:10:17.605Z,23.60
2023-03-16T04:11:27.758Z,22.92
2023-03-16T04:12:36.681Z,25.13
2023-03-16T04:13:47.580Z,24.77
2023-03-16T04:14:55.675Z,27.35
2023-03-16T04:16:03.800Z,22.65
2023-03-16T04:17:16.013Z,22.58
2023-03-16T04:18:29.689Z,22.83
2023-03-16T04:19:32.295Z,22.38
2023-03-16T04:21:59.544Z,25.58
2023-03-16T04:23:22.825Z,22.65
2023-03-16T04:24:46.673Z,25.15
2023-03-16T04:26:43.652Z,23.83
2023-03-16T04:34:26.918Z,24.23
2023-03-16T04:35:38.968Z,21.63
2023-03-16T04:36:47.233Z,24.85
2023-03-16T04:39:34.211Z,25.80
2023-03-16T04:40:51.753Z,20.95
2023-03-16T04:42:23.064Z,20.00
2023-03-16T04:43:37.779Z,23.00
2023-03-16T04:44:54.170Z,19.42
2023-03-16T04:45:58.916Z,25.02
2023-03-16T04:47:11.392Z,36.13
2023-03-16T04:48:26.279Z,33.28
2023-03-16T04:49:31.628Z,22.77
2023-03-16T04:50:36.868Z,20.83
2023-03-16T04:51:43.017Z,22.52
2023-03-16T04:54:32.833Z,22.98
2023-03-16T04:55:36.998Z,19.35
2023-03-16T04:56:47.263Z,22.88
2023-03-16T04:58:05.601Z,20.73
2023-03-16T04:59:16.235Z,23.37
2023-03-16T05:01:57.332Z,20.58
2023-03-16T05:03:08.197Z,21.65
2023-03-16T05:04:19.685Z,20.88
2023-03-16T05:05:23.340Z,23.27
2023-03-16T05:06:29.832Z,22.67
2023-03-16T05:07:34.782Z,22.77
2023-03-16T05:08:43.622Z,19.65
2023-03-16T05:09:48.340Z,21.00
2023-03-16T05:10:58.033Z,21.70
2023-03-16T05:12:25.299Z,19.73
2023-03-16T05:13:34.544Z,19.58
2023-03-16T05:14:37.119Z,21.08
2023-03-16T05:15:49.702Z,21.58
2023-03-16T05:16:57.607Z,23.10
2023-03-16T05:18:03.172Z,21.20
2023-03-16T05:19:08.738Z,19.42
2023-03-16T05:20:15.964Z,18.48
2023-03-16T05:21:22.863Z,21.40
2023-03-16T05:22:32.584Z,20.42
2023-03-16T05:23:54.590Z,21.45
2023-03-16T05:24:57.209Z,18.98
2023-03-16T05:26:13.753Z,21.52
2023-03-16T05:27:20.443Z,22.70
2023-03-16T05:28:25.028Z,20.15
2023-03-16T05:30:41.974Z,20.98
2023-03-16T05:31:47.911Z,20.90
2023-03-16T05:32:59.746Z,22.23
2023-03-16T05:34:11.169Z,22.27
2023-03-16T05:35:14.590Z,47.83
2023-03-16T05:36:17.749Z,25.60
2023-03-16T05:37:24.494Z,20.33
2023-03-16T05:38:38.270Z,21.05
2023-03-16T05:39:44.430Z,23.42
2023-03-16T05:40:53.228Z,21.20
2023-03-16T05:42:16.559Z,22.77
2023-03-16T05:43:31.717Z,20.63
2023-03-16T05:44:36.976Z,21.83
2023-03-16T05:45:59.292Z,21.90
2023-03-16T05:47:02.464Z,22.02
2023-03-16T05:48:08.661Z,20.60
2023-03-16T05:49:20.152Z,20.40
2023-03-16T05:50:23.535Z,22.48
2023-03-16T05:51:29.105Z,23.58
2023-03-16T05:52:32.851Z,21.63
2023-03-16T05:53:47.451Z,20.55
2023-03-16T05:55:13.730Z,22.23
2023-03-16T05:57:21.345Z,18.85
2023-03-16T05:58:26.581Z,19.50
2023-03-16T05:59:31.206Z,24.13
2023-03-16T06:00:34.016Z,22.15
2023-03-16T06:01:46.856Z,21.40
2023-03-16T06:02:52.109Z,20.10
2023-03-16T06:03:55.041Z,22.80
2023-03-16T06:05:02.255Z,23.05
2023-03-16T06:06:04.679Z,22.63
2023-03-16T06:08:16.700Z,21.95
2023-03-16T06:09:22.683Z,22.85
2023-03-16T06:10:27.083Z,24.95
2023-03-16T06:11:29.607Z,24.20
2023-03-16T06:12:32.726Z,24.63
2023-03-16T06:13:35.689Z,22.67
2023-03-16T06:14:40.167Z,22.67
2023-03-16T06:15:44.614Z,21.73
2023-03-16T06:16:48.598Z,22.40
2023-03-16T06:17:52.726Z,20.90
2023-03-16T06:18:58.518Z,20.20
2023-03-16T06:21:23.382Z,20.95
2023-03-16T06:22:31.944Z,24.50
2023-03-16T06:23:37.483Z,22.85
2023-03-16T06:24:42.841Z,23.27
2023-03-16T06:25:48.375Z,20.73
2023-03-16T06:26:51.625Z,22.85
2023-03-16T06:27:56.655Z,27.42
2023-03-16T06:29:01.407Z,21.90
2023-03-16T06:30:07.225Z,27.85
2023-03-16T06:31:10.033Z,24.52
2023-03-16T06:32:13.321Z,24.25
2023-03-16T06:33:16.604Z,21.15
2023-03-16T06:34:24.173Z,19.52
2023-03-16T06:36:57.237Z,23.77
2023-03-16T06:38:02.331Z,22.52
2023-03-16T06:39:34.862Z,24.02
2023-03-16T06:40:38.132Z,23.67
2023-03-16T06:41:43.354Z,24.17
2023-03-16T06:42:48.570Z,24.15
2023-03-16T06:43:55.923Z,26.42
2023-03-16T06:45:01.363Z,25.70
2023-03-16T06:46:05.982Z,25.02
2023-03-16T06:47:08.836Z,25.73
2023-03-16T06:48:32.524Z,24.77
2023-03-16T06:49:39.551Z,26.05
2023-03-16T06:51:18.624Z,25.60
2023-03-16T06:52:23.075Z,25.38
2023-03-16T06:53:25.767Z,25.80
2023-03-16T06:54:29.796Z,27.08
2023-03-16T06:55:32.720Z,26.60
2023-03-16T06:56:37.521Z,26.88
2023-03-16T06:57:41.638Z,25.98
2023-03-16T06:58:48.519Z,27.80
2023-03-16T06:59:51.409Z,27.08
2023-03-16T07:00:54.389Z,26.73
2023-03-16T07:01:57.894Z,24.70
2023-03-16T07:03:02.326Z,28.25
2023-03-16T07:04:06.066Z,28.63
2023-03-16T07:05:13.905Z,27.33
2023-03-16T07:06:18.133Z,27.00
2023-03-16T07:07:20.464Z,27.83
2023-03-16T07:08:23.099Z,26.13
2023-03-16T07:09:26.581Z,26.38
2023-03-16T07:10:29.996Z,24.23
2023-03-16T07:11:36.758Z,28.33
2023-03-16T07:12:42.021Z,26.42
2023-03-16T07:13:45.582Z,26.80
2023-03-16T07:14:54.379Z,25.50
2023-03-16T07:16:00.360Z,24.17
2023-03-16T07:17:02.776Z,27.88
2023-03-16T07:18:11.023Z,26.17
2023-03-16T07:19:13.810Z,25.10
2023-03-16T07:20:23.751Z,25.23
2023-03-16T07:21:26.353Z,23.42
2023-03-16T07:22:29.184Z,24.33
2023-03-16T07:23:33.678Z,24.38
2023-03-16T07:24:42.355Z,27.35
2023-03-16T07:25:46.248Z,28.40
2023-03-16T07:26:53.489Z,26.42
2023-03-16T07:28:10.771Z,24.23
2023-03-16T07:29:18.955Z,26.50
2023-03-16T07:30:22.409Z,27.20
2023-03-16T07:31:26.072Z,28.88
2023-03-16T07:32:30.437Z,25.55
2023-03-16T07:33:36.313Z,25.88
2023-03-16T07:34:43.846Z,26.50
2023-03-16T07:35:46.769Z,29.00
2023-03-16T07:36:49.782Z,28.08
2023-03-16T07:37:52.294Z,26.88
2023-03-16T07:38:55.447Z,27.52
2023-03-16T07:39:57.915Z,30.25
2023-03-16T07:41:01.456Z,27.58
2023-03-16T07:42:04.506Z,27.95
2023-03-16T07:43:19.844Z,28.67
2023-03-16T07:44:25.506Z,31.33
2023-03-16T07:45:30.334Z,29.40
2023-03-16T07:46:33.704Z,30.67
2023-03-16T07:47:36.824Z,29.17
2023-03-16T07:48:46.553Z,27.90
2023-03-16T07:49:52.762Z,29.92
2023-03-16T07:51:07.452Z,28.95
2023-03-16T07:52:10.257Z,27.90
2023-03-16T07:53:30.655Z,30.33
2023-03-16T07:55:11.432Z,30.02
2023-03-16T07:56:17.400Z,32.67
2023-03-16T07:57:23.652Z,32.53
2023-03-16T07:58:26.167Z,31.10
2023-03-16T07:59:29.449Z,33.15
2023-03-16T08:00:32.730Z,32.40
2023-03-16T08:01:39.176Z,34.22
2023-03-16T08:02:42.707Z,32.85
2023-03-16T08:03:48.434Z,30.10
2023-03-16T08:04:52.248Z,33.42
2023-03-16T08:05:55.673Z,33.05
2023-03-16T08:07:02.581Z,34.13
2023-03-16T08:08:20.657Z,36.28
2023-03-16T08:09:23.750Z,38.08
2023-03-16T08:10:32.515Z,35.20
2023-03-16T08:11:47.276Z,33.60
2023-03-16T08:12:49.842Z,36.20
2023-03-16T08:13:56.859Z,36.20
2023-03-16T08:15:02.712Z,35.17
2023-03-16T08:16:10.825Z,37.33
2023-03-16T08:17:15.733Z,32.85
2023-03-16T08:18:19.788Z,32.13
2023-03-16T08:19:23.023Z,35.05
2023-03-16T08:20:26.933Z,35.10
2023-03-16T08:21:30.707Z,34.90
2023-03-16T08:22:37.539Z,36.55
2023-03-16T08:23:40.507Z,35.58
2023-03-16T08:24:45.381Z,38.13
2023-03-16T08:25:55.484Z,37.50
2023-03-16T08:28:26.421Z,43.92
2023-03-16T08:29:31.228Z,40.22
2023-03-16T08:30:34.414Z,38.60
2023-03-16T08:31:56.469Z,40.10
2023-03-16T08:33:07.169Z,33.88
2023-03-16T08:34:12.644Z,38.95
2023-03-16T08:35:20.884Z,36.45
2023-03-16T08:36:25.354Z,38.75
2023-03-16T08:37:30.068Z,38.35
2023-03-16T08:38:35.265Z,37.30
2023-03-16T08:39:42.812Z,37.80
2023-03-16T08:40:51.395Z,40.65
2023-03-16T08:41:59.007Z,38.42
2023-03-16T08:43:19.458Z,40.67
2023-03-16T08:44:29.023Z,41.00
2023-03-16T08:45:31.655Z,39.03
2023-03-16T08:46:34.609Z,37.38
2023-03-16T08:47:40.695Z,41.80
2023-03-16T08:48:51.528Z,39.05
2023-03-16T08:50:00.518Z,39.78
2023-03-16T08:51:04.395Z,41.10
2023-03-16T08:52:10.520Z,37.60
2023-03-16T08:53:17.518Z,37.47
2023-03-16T08:54:20.628Z,39.35
2023-03-16T08:55:24.699Z,40.08
2023-03-16T08:56:27.629Z,40.95
2023-03-16T08:57:34.887Z,40.45
2023-03-16T08:58:40.505Z,41.83
2023-03-16T08:59:45.190Z,44.35
2023-03-16T09:00:51.006Z,40.60
2023-03-16T09:02:04.484Z,40.30
2023-03-16T09:03:08.264Z,44.03
2023-03-16T09:04:12.033Z,40.95
2023-03-16T09:05:16.136Z,39.92
2023-03-16T09:06:18.932Z,44.55
2023-03-16T09:07:21.310Z,41.40
2023-03-16T09:08:27.721Z,39.08
2023-03-16T09:09:36.018Z,37.03
2023-03-16T09:10:38.377Z,40.80
2023-03-16T09:11:40.643Z,41.50
2023-03-16T09:12:45.600Z,43.22
2023-03-16T09:13:48.477Z,46.40
2023-03-16T09:14:52.065Z,43.60
2023-03-16T09:15:55.375Z,44.00
2023-03-16T09:16:57.770Z,45.53
2023-03-16T09:18:04.005Z,45.42
2023-03-16T09:19:07.579Z,46.25
2023-03-16T09:20:34.890Z,42.80
2023-03-16T09:21:37.869Z,47.08
2023-03-16T09:22:41.656Z,44.42
2023-03-16T09:23:44.698Z,51.08
2023-03-16T09:24:53.213Z,50.05
2023-03-16T09:26:05.627Z,43.88
2023-03-16T09:27:08.123Z,48.83
2023-03-16T09:28:13.323Z,50.50
2023-03-16T09:29:16.445Z,49.38
2023-03-16T09:30:19.277Z,50.83
2023-03-16T09:31:23.119Z,47.08
2023-03-16T09:32:25.930Z,45.10
2023-03-16T09:33:30.133Z,47.33
2023-03-16T09:34:34.801Z,47.35
2023-03-16T09:35:38.055Z,45.83
2023-03-16T09:36:42.000Z,46.28
2023-03-16T09:38:01.048Z,44.28
2023-03-16T09:39:10.189Z,48.03
2023-03-16T09:40:36.199Z,45.85
2023-03-16T09:41:49.551Z,43.88
2023-03-16T09:43:06.983Z,47.67
2023-03-16T09:44:56.072Z,46.00
2023-03-16T09:46:42.499Z,46.15
2023-03-16T09:47:50.783Z,44.25
2023-03-16T09:48:55.552Z,46.00
2023-03-16T09:50:07.028Z,44.63
2023-03-16T09:51:45.079Z,46.13
2023-03-16T09:53:05.752Z,45.47
2023-03-16T09:54:48.453Z,43.30
2023-03-16T09:55:58.970Z,40.78
2023-03-16T09:57:06.878Z,40.53
2023-03-16T09:58:22.977Z,43.63
2023-03-16T09:59:29.794Z,41.40
2023-03-16T10:00:42.077Z,44.03
2023-03-16T10:02:05.364Z,44.72
2023-03-16T10:03:59.409Z,46.70
2023-03-16T10:05:20.622Z,42.35
2023-03-16T10:06:42.631Z,45.85
2023-03-16T10:08:13.462Z,43.42
2023-03-16T10:09:40.637Z,39.08
2023-03-16T10:11:17.722Z,44.22
2023-03-16T10:12:33.826Z,37.38
2023-03-16T10:14:08.169Z,41.83
2023-03-16T10:15:15.667Z,38.90
2023-03-16T10:16:23.612Z,40.00
2023-03-16T10:18:43.940Z,42.10
2023-03-16T10:19:51.881Z,40.92
2023-03-16T10:20:58.672Z,35.88
2023-03-16T10:22:10.286Z,40.58
2023-03-16T10:23:26.198Z,39.33
2023-03-16T10:25:08.337Z,42.00
2023-03-16T10:26:15.084Z,42.47
2023-03-16T10:27:29.188Z,45.83
2023-03-16T10:28:32.554Z,46.03
2023-03-16T10:29:37.259Z,48.97
2023-03-16T10:30:42.832Z,46.03
2023-03-16T10:31:49.375Z,44.13
2023-03-16T10:32:53.373Z,42.28
2023-03-16T10:34:04.960Z,49.75
2023-03-16T10:35:30.223Z,45.28
2023-03-16T10:36:35.944Z,47.92
2023-03-16T10:37:39.068Z,44.03
2023-03-16T10:38:47.021Z,49.50
2023-03-16T10:39:50.533Z,45.35
2023-03-16T10:40:54.642Z,48.55
2023-03-16T10:41:59.493Z,49.55
2023-03-16T10:43:14.623Z,51.55
2023-03-16T10:44:23.934Z,52.95
2023-03-16T10:45:32.321Z,52.90
2023-03-16T10:46:39.657Z,51.75
2023-03-16T10:47:42.426Z,54.28
2023-03-16T10:49:00.408Z,50.50
2023-03-16T10:50:16.957Z,51.83
2023-03-16T10:51:26.318Z,55.13
2023-03-16T10:52:50.162Z,47.28
2023-03-16T10:53:53.148Z,49.10
2023-03-16T10:55:21.419Z,52.85
2023-03-16T10:56:26.584Z,51.42
2023-03-16T10:57:42.387Z,47.90
2023-03-16T10:58:46.588Z,51.05
2023-03-16T10:59:50.986Z,51.45
2023-03-16T11:00:55.367Z,47.97
2023-03-16T11:01:58.592Z,49.20
2023-03-16T11:03:02.046Z,49.00
2023-03-16T11:04:16.780Z,49.00
2023-03-16T11:05:19.246Z,49.63
2023-03-16T11:06:40.120Z,49.38
2023-03-16T11:08:02.545Z,48.20
2023-03-16T11:09:15.266Z,45.33
2023-03-16T11:10:46.110Z,49.42
2023-03-16T11:11:56.100Z,49.53
2023-03-16T11:13:21.637Z,52.25
2023-03-16T11:14:28.997Z,48.67
2023-03-16T11:16:02.906Z,49.47
2023-03-16T11:17:15.131Z,48.95
2023-03-16T11:18:30.250Z,49.08
2023-03-16T11:19:49.669Z,46.60
2023-03-16T11:20:53.268Z,48.08
2023-03-16T11:22:16.729Z,48.55
2023-03-16T11:23:29.739Z,50.70
2023-03-16T11:24:52.992Z,52.00
2023-03-16T11:25:59.689Z,49.03
2023-03-16T11:27:08.741Z,49.65
2023-03-16T11:29:36.293Z,47.85
2023-03-16T11:30:48.046Z,50.33
2023-03-16T11:31:53.821Z,51.40
2023-03-16T11:32:57.038Z,46.95
2023-03-16T11:34:00.346Z,44.65
2023-03-16T11:35:08.244Z,46.42
2023-03-16T11:36:32.022Z,47.90
2023-03-16T11:38:09.875Z,44.90
2023-03-16T11:39:18.334Z,46.40
2023-03-16T11:40:54.203Z,44.47
2023-03-16T11:42:04.813Z,45.47
2023-03-16T11:43:10.090Z,47.72
2023-03-16T11:44:29.269Z,47.85
2023-03-16T11:46:44.791Z,46.53
2023-03-16T11:48:00.118Z,48.35
2023-03-16T11:49:30.263Z,45.47
2023-03-16T11:50:58.966Z,47.60
2023-03-16T11:52:20.329Z,45.50
2023-03-16T11:53:36.492Z,44.20
2023-03-16T11:54:56.458Z,46.33
2023-03-16T11:56:29.006Z,51.10
2023-03-16T11:58:10.622Z,44.40
2023-03-16T11:59:34.869Z,45.17
2023-03-16T12:00:59.591Z,43.33
2023-03-16T12:02:48.756Z,42.53
2023-03-16T12:04:30.851Z,42.00
2023-03-16T12:06:22.227Z,43.40
2023-03-16T12:07:40.201Z,42.40
2023-03-16T12:09:04.777Z,42.63
2023-03-16T12:10:39.179Z,43.42
2023-03-16T12:12:00.615Z,45.00
2023-03-16T12:13:30.930Z,42.13
2023-03-16T12:14:53.511Z,40.92
2023-03-16T12:16:13.152Z,42.40
2023-03-16T12:17:28.382Z,45.50
2023-03-16T12:18:57.865Z,44.72
2023-03-16T12:20:29.197Z,41.85
2023-03-16T12:21:43.360Z,42.10
2023-03-16T12:23:05.605Z,45.17
2023-03-16T12:24:22.925Z,45.25
2023-03-16T12:25:35.158Z,49.30
2023-03-16T12:26:42.849Z,40.05
2023-03-16T12:27:53.376Z,37.83
2023-03-16T12:28:58.884Z,43.90
2023-03-16T12:30:21.764Z,41.65
2023-03-16T12:31:49.868Z,42.00
2023-03-16T12:33:18.821Z,40.83
2023-03-16T12:35:26.699Z,37.60
2023-03-16T12:36:49.577Z,38.85
2023-03-16T12:38:26.006Z,39.67
2023-03-16T12:39:47.303Z,38.63
2023-03-16T12:41:05.267Z,39.28
2023-03-16T12:42:29.602Z,38.20
2023-03-16T12:43:38.036Z,40.05
2023-03-16T12:44:55.529Z,42.78
2023-03-16T12:46:23.252Z,38.50
2023-03-16T12:47:55.211Z,36.67
2023-03-16T12:49:01.989Z,40.30
2023-03-16T12:50:11.641Z,38.55
2023-03-16T12:51:14.271Z,41.95
2023-03-16T12:52:20.704Z,40.22
2023-03-16T12:53:44.895Z,45.45
2023-03-16T12:55:05.983Z,46.38
2023-03-16T12:56:18.717Z,44.67
2023-03-16T12:58:49.637Z,43.53
2023-03-16T13:00:00.320Z,44.97
2023-03-16T13:01:05.702Z,43.47
2023-03-16T13:02:25.141Z,41.60
2023-03-16T13:03:29.207Z,43.80
2023-03-16T13:04:35.751Z,46.28
2023-03-16T13:05:46.674Z,46.50
2023-03-16T13:06:53.056Z,43.92
2023-03-16T13:08:16.765Z,41.30
2023-03-16T13:09:25.137Z,45.30
2023-03-16T13:10:29.060Z,46.67
2023-03-16T13:11:53.903Z,48.35
2023-03-16T13:13:07.810Z,45.17
2023-03-16T13:14:18.543Z,44.58
2023-03-16T13:15:21.595Z,48.50
2023-03-16T13:16:33.615Z,49.63
2023-03-16T13:17:41.448Z,48.08
2023-03-16T13:18:46.819Z,49.03
2023-03-16T13:20:31.318Z,45.80
2023-03-16T13:21:43.221Z,47.90
2023-03-16T13:22:50.445Z,46.72
2023-03-16T13:24:27.628Z,49.13
2023-03-16T13:25:31.093Z,50.42
2023-03-16T13:26:55.254Z,49.33
2023-03-16T13:28:02.744Z,45.10
2023-03-16T13:29:29.157Z,48.35
2023-03-16T13:30:34.563Z,47.15
2023-03-16T13:31:41.736Z,49.05
2023-03-16T13:32:47.550Z,49.83
2023-03-16T13:33:57.136Z,52.42
2023-03-16T13:35:02.909Z,53.80
2023-03-16T13:36:08.524Z,52.63
2023-03-16T13:37:18.486Z,50.58
2023-03-16T13:38:27.759Z,46.75
2023-03-16T13:39:34.521Z,52.15
2023-03-16T13:40:48.982Z,46.05
2023-03-16T13:42:00.379Z,43.80
2023-03-16T13:43:04.543Z,43.40
2023-03-16T13:44:19.099Z,42.35
2023-03-16T13:45:33.551Z,43.25
2023-03-16T13:46:40.122Z,48.75
2023-03-16T13:47:49.325Z,47.58
2023-03-16T13:48:53.715Z,45.35
2023-03-16T13:49:59.019Z,46.05
2023-03-16T13:51:02.138Z,42.05
2023-03-16T13:52:06.207Z,40.90
2023-03-16T13:53:30.836Z,42.63
2023-03-16T13:54:39.210Z,39.53
2023-03-16T13:55:47.780Z,44.83
2023-03-16T13:56:54.062Z,43.90
2023-03-16T13:57:58.443Z,39.05
2023-03-16T13:59:02.023Z,37.13
2023-03-16T14:00:19.016Z,41.80
2023-03-16T14:01:32.922Z,35.40
2023-03-16T14:02:45.981Z,32.38
2023-03-16T14:03:49.408Z,33.33
2023-03-16T14:04:53.181Z,32.38
2023-03-16T14:05:58.228Z,30.40
2023-03-16T14:07:02.935Z,31.17
2023-03-16T14:08:15.644Z,33.75
2023-03-16T14:09:23.405Z,34.50
2023-03-16T14:10:33.663Z,37.67
2023-03-16T14:11:36.094Z,33.92
2023-03-16T14:12:50.844Z,35.65
2023-03-16T14:13:56.573Z,34.58
2023-03-16T14:14:59.243Z,36.90
2023-03-16T14:16:04.717Z,38.15
2023-03-16T14:17:15.650Z,32.72
2023-03-16T14:18:23.667Z,35.58
2023-03-16T14:19:41.824Z,38.60
2023-03-16T14:20:46.648Z,39.28
2023-03-16T14:21:56.514Z,42.20
2023-03-16T14:23:01.348Z,38.63
2023-03-16T14:24:07.746Z,37.63
2023-03-16T14:25:23.060Z,41.35
2023-03-16T14:26:27.304Z,38.92
2023-03-16T14:27:46.977Z,45.35
2023-03-16T14:29:05.481Z,43.60
2023-03-16T14:30:28.120Z,45.85
2023-03-16T14:31:38.823Z,44.10
2023-03-16T14:32:42.782Z,46.70
2023-03-16T14:33:48.592Z,45.50
2023-03-16T14:34:54.567Z,51.80
2023-03-16T14:36:11.110Z,49.13
2023-03-16T14:37:19.478Z,51.50
2023-03-16T14:38:41.416Z,48.45
2023-03-16T14:39:43.954Z,55.22
2023-03-16T14:40:58.552Z,52.28
2023-03-16T14:42:04.835Z,51.13
2023-03-16T14:43:12.088Z,55.30
2023-03-16T14:44:22.917Z,52.38
2023-03-16T14:45:38.901Z,56.97
2023-03-16T14:46:42.580Z,62.53
2023-03-16T14:47:50.091Z,54.38
2023-03-16T14:48:53.397Z,57.75
2023-03-16T14:49:59.160Z,56.45
2023-03-16T14:51:04.491Z,56.92
2023-03-16T14:52:15.640Z,57.40
2023-03-16T14:53:18.820Z,58.35
2023-03-16T14:54:23.519Z,57.67
2023-03-16T14:55:26.245Z,54.33
2023-03-16T14:56:35.496Z,54.65
2023-03-16T14:57:41.969Z,55.35
2023-03-16T14:58:48.105Z,56.50
2023-03-16T14:59:50.872Z,53.88
2023-03-16T15:00:55.286Z,55.08
2023-03-16T15:01:59.651Z,61.05
2023-03-16T15:03:10.112Z,54.22
2023-03-16T15:04:25.826Z,61.30
2023-03-16T15:05:36.540Z,56.45
2023-03-16T15:06:43.262Z,59.17
2023-03-16T15:07:47.322Z,58.83
2023-03-16T15:08:52.058Z,59.08
2023-03-16T15:09:56.488Z,54.53
2023-03-16T15:11:02.693Z,55.58
2023-03-16T15:12:13.326Z,57.78
2023-03-16T15:13:34.927Z,57.40
2023-03-16T15:14:55.771Z,59.28
2023-03-16T15:15:59.289Z,57.90
2023-03-16T15:17:01.885Z,61.97
2023-03-16T15:18:04.284Z,54.95
2023-03-16T15:19:06.720Z,60.03
2023-03-16T15:20:12.480Z,65.35
2023-03-16T15:21:18.592Z,63.70
2023-03-16T15:22:31.720Z,62.78
2023-03-16T15:23:36.972Z,61.13
2023-03-16T15:24:43.655Z,63.08
2023-03-16T15:25:48.812Z,62.28
2023-03-16T15:26:52.665Z,58.40
2023-03-16T15:27:56.817Z,62.83
2023-03-16T15:28:59.098Z,56.22
2023-03-16T15:30:03.247Z,61.15
2023-03-16T15:31:05.484Z,63.25
2023-03-16T15:32:14.683Z,59.10
2023-03-16T15:33:18.298Z,58.42